Time;durP1;ratioP1;P1;durP2;ratioP2;P2;SDS_P1;SDS_P2;PMS_P1;PMS_P2;Temp;Humidity;BMP_temperature;BMP_pressure;BME280_temperature;BME280_humidity;BME280_pressure;Samples;Min_cycle;Max_cycle;Signal;HPM_P1;HPM_P2
2023/04/23 00:02:01;;;;;;;19.10;8.77;;;;;;;8.52;100.00;99554.38;5132216;28;20054;-84
2023/04/23 00:04:29;;;;;;;16.52;7.15;;;;;;;8.37;100.00;99515.94;5132767;28;20425;-85
2023/04/23 00:06:57;;;;;;;16.45;7.15;;;;;;;8.57;100.00;99532.44;5132321;28;20107;-84
2023/04/23 00:09:27;;;;;;;19.33;8.85;;;;;;;8.15;100.00;99490.91;5133243;27;20050;-84
2023/04/23 00:11:55;;;;;;;16.45;7.70;;;;;;;8.32;100.00;99520.53;5131807;27;20043;-84
2023/04/23 00:14:22;;;;;;;18.33;8.32;;;;;;;8.12;100.00;99500.63;5129449;27;20050;-85
2023/04/23 00:16:49;;;;;;;15.50;7.70;;;;;;;8.33;100.00;99519.63;5131545;27;20374;-85
2023/04/23 00:19:15;;;;;;;18.05;8.65;;;;;;;8.45;100.00;99537.34;5126215;27;20054;-84
2023/04/23 00:21:42;;;;;;;16.67;8.18;;;;;;;8.05;100.00;99494.03;5135485;27;20047;-85
2023/04/23 00:24:09;;;;;;;14.82;8.30;;;;;;;8.34;100.00;99529.16;5127869;27;20052;-84
2023/04/23 00:26:35;;;;;;;23.02;9.07;;;;;;;8.20;100.00;99497.66;5131346;27;20047;-84
2023/04/23 00:29:02;;;;;;;18.48;8.57;;;;;;;8.30;100.00;99498.91;5129728;27;20055;-84
2023/04/23 00:31:29;;;;;;;23.95;9.35;;;;;;;8.24;100.00;99515.69;5127733;27;20051;-84
2023/04/23 00:33:56;;;;;;;19.83;9.48;;;;;;;8.38;100.00;99550.72;5134862;27;20053;-85
2023/04/23 00:36:23;;;;;;;20.27;10.98;;;;;;;8.07;100.00;99516.47;5135634;27;20051;-84
2023/04/23 00:38:49;;;;;;;17.75;8.00;;;;;;;8.14;100.00;99490.97;5135517;27;20046;-84
2023/04/23 00:41:17;;;;;;;23.42;8.02;;;;;;;8.27;100.00;99505.13;5135440;27;20403;-84
2023/04/23 00:43:45;;;;;;;21.33;10.02;;;;;;;8.22;100.00;99493.22;5119618;27;20453;-83
2023/04/23 00:46:11;;;;;;;15.80;8.20;;;;;;;8.22;100.00;99488.84;5137995;27;20055;-84
2023/04/23 00:48:39;;;;;;;15.63;8.27;;;;;;;8.19;100.00;99481.16;5134314;27;20047;-84
2023/04/23 00:51:05;;;;;;;23.50;10.35;;;;;;;8.28;100.00;99500.75;5133792;27;20043;-84
2023/04/23 00:53:33;;;;;;;19.10;8.57;;;;;;;8.45;100.00;99536.50;5125993;27;20425;-84
2023/04/23 00:56:02;;;;;;;20.67;8.70;;;;;;;8.24;100.00;99507.03;5126309;27;20047;-84
2023/04/23 00:58:29;;;;;;;16.92;7.63;;;;;;;8.27;100.00;99486.88;5137296;27;20055;-84
2023/04/23 01:00:56;;;;;;;18.73;8.02;;;;;;;8.44;100.00;99506.94;5136045;27;20050;-83
2023/04/23 01:03:25;;;;;;;16.15;6.50;;;;;;;8.50;100.00;99505.81;5135219;27;20035;-84
2023/04/23 01:05:52;;;;;;;25.17;7.82;;;;;;;8.38;100.00;99475.09;5135852;27;20046;-85
2023/04/23 01:08:22;;;;;;;20.05;8.35;;;;;;;8.18;100.00;99477.72;5136379;27;20039;-84
2023/04/23 01:10:49;;;;;;;19.23;10.30;;;;;;;8.05;100.00;99455.75;5135085;27;20054;-85
2023/04/23 01:13:16;;;;;;;15.35;7.05;;;;;;;8.27;100.00;99465.16;5134870;27;20043;-84
2023/04/23 01:15:44;;;;;;;17.70;7.97;;;;;;;8.30;100.00;99481.50;5136455;27;20047;-84
2023/04/23 01:18:12;;;;;;;20.45;8.88;;;;;;;8.24;100.00;99486.19;5136014;27;20047;-85
2023/04/23 01:20:38;;;;;;;22.13;9.27;;;;;;;8.30;100.00;99486.69;5135970;27;20040;-84
2023/04/23 01:23:06;;;;;;;21.10;8.25;;;;;;;8.39;100.00;99495.00;5134566;27;20365;-84
2023/04/23 01:25:33;;;;;;;15.20;7.97;;;;;;;8.44;100.00;99490.44;5116722;28;20058;-84
2023/04/23 01:28:00;;;;;;;19.65;7.85;;;;;;;8.39;100.00;99508.06;5128291;27;20100;-84
2023/04/23 01:30:28;;;;;;;19.33;9.07;;;;;;;8.05;100.00;99479.22;5136704;27;20050;-84
2023/04/23 01:32:55;;;;;;;18.60;8.82;;;;;;;7.86;100.00;99447.09;5135489;27;20165;-85
2023/04/23 01:35:24;;;;;;;19.38;8.60;;;;;;;8.06;100.00;99488.75;5136076;27;20050;-85
2023/04/23 01:37:51;;;;;;;19.30;9.02;;;;;;;7.64;100.00;99445.50;5124858;27;20488;-85
2023/04/23 01:40:19;;;;;;;18.67;9.45;;;;;;;7.62;100.00;99449.13;5135247;27;20556;-85
2023/04/23 01:42:49;;;;;;;21.58;8.80;;;;;;;7.51;100.00;99453.06;5126872;27;20062;-84
2023/04/23 01:45:19;;;;;;;15.07;7.50;;;;;;;7.55;100.00;99417.28;5120906;27;20051;-85
2023/04/23 01:47:49;;;;;;;27.73;9.82;;;;;;;8.01;100.00;99487.28;5135688;27;20088;-85
2023/04/23 01:50:16;;;;;;;16.17;7.68;;;;;;;7.83;100.00;99481.16;5128143;27;20067;-85
2023/04/23 01:52:44;;;;;;;24.25;8.82;;;;;;;7.80;100.00;99462.13;5133894;27;20400;-84
2023/04/23 01:55:11;;;;;;;15.85;7.05;;;;;;;8.11;100.00;99485.88;5118318;27;20516;-84
2023/04/23 01:57:38;;;;;;;15.38;8.60;;;;;;;7.67;100.00;99431.50;5133258;27;20043;-85
2023/04/23 02:00:10;;;;;;;19.42;8.52;;;;;;;7.86;100.00;99447.97;5135463;27;20043;-85
2023/04/23 02:02:38;;;;;;;21.17;8.40;;;;;;;7.69;100.00;99446.16;5134788;27;20047;-84
2023/04/23 02:05:17;;;;;;;17.52;7.75;;;;;;;7.90;100.00;99459.94;5133406;27;20407;-84
2023/04/23 02:07:46;;;;;;;15.32;6.35;;;;;;;7.97;100.00;99443.09;5122695;27;20083;-85
2023/04/23 02:10:13;;;;;;;17.50;6.93;;;;;;;7.97;100.00;99452.69;5133111;27;20043;-85
2023/04/23 02:12:40;;;;;;;15.68;8.23;;;;;;;8.26;100.00;99492.16;5134293;27;20054;-84
2023/04/23 02:15:08;;;;;;;17.10;8.02;;;;;;;8.22;100.00;99486.25;5134110;27;20047;-85
2023/04/23 02:17:35;;;;;;;16.35;7.75;;;;;;;8.07;100.00;99459.13;5126534;27;20051;-85
2023/04/23 02:20:02;;;;;;;15.38;8.45;;;;;;;8.04;100.00;99446.25;5128594;27;20117;-84
2023/04/23 02:22:30;;;;;;;20.58;8.68;;;;;;;8.09;100.00;99457.31;5134406;27;20663;-84
2023/04/23 02:24:57;;;;;;;19.42;8.77;;;;;;;7.77;100.00;99435.34;5126368;27;20067;-84
2023/04/23 02:27:24;;;;;;;28.17;8.35;;;;;;;7.72;100.00;99404.31;5133690;27;20042;-84
2023/04/23 02:29:52;;;;;;;20.52;8.88;;;;;;;8.07;100.00;99455.69;5132936;27;20404;-84
2023/04/23 02:32:19;;;;;;;18.20;7.55;;;;;;;7.49;100.00;99389.78;5133135;27;20404;-84
2023/04/23 02:34:46;;;;;;;19.08;7.97;;;;;;;7.83;100.00;99434.25;5134475;27;20086;-84
2023/04/23 02:37:12;;;;;;;18.48;8.88;;;;;;;7.73;100.00;99418.19;5135396;27;20047;-85
2023/04/23 02:39:39;;;;;;;17.13;7.68;;;;;;;7.64;100.00;99410.81;5135422;27;20043;-85
2023/04/23 02:42:06;;;;;;;21.52;7.65;;;;;;;7.55;100.00;99394.69;5134716;27;20486;-84
2023/04/23 02:44:33;;;;;;;18.50;7.72;;;;;;;7.69;100.00;99394.03;5120415;27;20055;-85
2023/04/23 02:47:00;;;;;;;14.20;6.15;;;;;;;7.93;100.00;99417.25;5134502;27;20043;-85
2023/04/23 02:49:26;;;;;;;16.70;6.75;;;;;;;7.76;100.00;99423.25;5135119;27;20039;-85
2023/04/23 02:51:53;;;;;;;22.98;7.57;;;;;;;7.53;100.00;99393.91;5133001;27;20043;-85
2023/04/23 02:54:20;;;;;;;22.20;7.20;;;;;;;7.48;100.00;99392.44;5133777;27;20047;-84
2023/04/23 02:56:47;;;;;;;18.70;7.53;;;;;;;7.67;100.00;99424.53;5133648;27;20047;-85
2023/04/23 02:59:14;;;;;;;15.43;7.25;;;;;;;7.70;100.00;99421.78;5134393;27;20500;-85
2023/04/23 03:01:40;;;;;;;21.67;7.53;;;;;;;7.70;100.00;99418.31;5133671;27;20042;-84
2023/04/23 03:04:07;;;;;;;19.67;7.80;;;;;;;7.70;100.00;99427.00;5127424;27;20050;-84
2023/04/23 03:06:35;;;;;;;16.40;7.05;;;;;;;7.99;100.00;99449.06;5131530;27;20043;-85
2023/04/23 03:09:03;;;;;;;21.88;8.45;;;;;;;7.31;100.00;99373.25;5132824;27;20653;-84
2023/04/23 03:11:30;;;;;;;21.13;6.63;;;;;;;7.73;100.00;99449.44;5132706;27;20649;-85
2023/04/23 03:13:57;;;;;;;14.65;7.05;;;;;;;7.73;100.00;99419.03;5126576;27;20055;-85
2023/04/23 03:16:27;;;;;;;19.05;7.43;;;;;;;7.72;100.00;99413.88;5118076;27;20048;-85
2023/04/23 03:18:54;;;;;;;14.93;6.38;;;;;;;7.72;100.00;99440.81;5133723;27;20647;-84
2023/04/23 03:21:21;;;;;;;17.55;6.47;;;;;;;7.73;100.00;99423.41;5132819;27;20054;-84
2023/04/23 03:23:48;;;;;;;16.88;7.38;;;;;;;7.75;100.00;99418.94;5135175;27;20156;-85
2023/04/23 03:26:14;;;;;;;16.75;6.53;;;;;;;7.79;100.00;99430.91;5134034;27;20061;-85
2023/04/23 03:28:41;;;;;;;13.27;6.28;;;;;;;8.04;100.00;99467.13;5134609;27;20078;-85
2023/04/23 03:31:08;;;;;;;14.48;6.40;;;;;;;7.85;100.00;99440.22;5134818;27;20472;-85
2023/04/23 03:33:35;;;;;;;20.58;7.18;;;;;;;7.67;100.00;99434.13;5131192;27;20453;-85
2023/04/23 03:36:01;;;;;;;16.45;6.78;;;;;;;7.71;100.00;99433.88;5123199;28;20043;-84
2023/04/23 03:38:28;;;;;;;24.67;7.45;;;;;;;7.64;100.00;99406.44;5133306;28;20059;-84
2023/04/23 03:40:55;;;;;;;18.98;6.55;;;;;;;7.64;100.00;99413.41;5134610;27;20408;-85
2023/04/23 03:43:22;;;;;;;15.52;7.15;;;;;;;7.45;100.00;99367.38;5130890;27;20442;-84
2023/04/23 03:45:48;;;;;;;17.25;6.38;;;;;;;7.73;100.00;99412.97;5136404;27;20047;-84
2023/04/23 03:48:15;;;;;;;16.15;6.53;;;;;;;7.56;100.00;99398.13;5137516;27;20150;-85
2023/04/23 03:50:42;;;;;;;16.98;6.30;;;;;;;7.50;100.00;99383.63;5134873;27;20043;-84
2023/04/23 03:53:09;;;;;;;18.08;6.78;;;;;;;7.90;100.00;99441.69;5135076;27;20055;-85
2023/04/23 03:55:36;;;;;;;16.08;6.95;;;;;;;7.68;100.00;99414.94;5124105;27;20055;-85
2023/04/23 03:58:02;;;;;;;17.20;6.18;;;;;;;7.47;100.00;99406.38;5136439;27;20446;-85
2023/04/23 04:00:29;;;;;;;15.75;6.47;;;;;;;7.43;100.00;99384.84;5137272;27;20043;-85
2023/04/23 04:02:56;;;;;;;17.10;6.03;;;;;;;7.67;100.00;99408.06;5136795;27;20476;-85
2023/04/23 04:05:23;;;;;;;15.93;7.05;;;;;;;7.66;100.00;99404.59;5136841;27;20126;-85
2023/04/23 04:07:50;;;;;;;13.75;5.70;;;;;;;7.77;100.00;99407.56;5137799;27;20047;-86
2023/04/23 04:10:17;;;;;;;15.68;5.90;;;;;;;7.81;100.00;99408.25;5137290;27;20050;-85
2023/04/23 04:12:46;;;;;;;15.63;6.70;;;;;;;7.45;100.00;99377.78;5136349;27;20062;-84
2023/04/23 04:15:15;;;;;;;17.40;6.45;;;;;;;7.52;100.00;99373.97;5138044;27;20043;-84
2023/04/23 04:17:44;;;;;;;16.40;6.10;;;;;;;7.88;100.00;99411.41;5136810;27;20130;-84
2023/04/23 04:20:12;;;;;;;18.05;6.28;;;;;;;8.04;100.00;99441.03;5135349;27;20062;-84
2023/04/23 04:22:38;;;;;;;16.40;6.53;;;;;;;7.73;100.00;99392.13;5135081;27;20487;-84
2023/04/23 04:25:06;;;;;;;23.05;8.82;;;;;;;7.64;100.00;99388.19;5136260;27;20039;-84
2023/04/23 04:27:33;;;;;;;18.15;6.22;;;;;;;7.82;100.00;99396.06;5138077;27;20049;-84
2023/04/23 04:30:00;;;;;;;17.80;7.15;;;;;;;7.79;100.00;99410.94;5136085;27;20420;-85
2023/04/23 04:32:27;;;;;;;18.30;6.40;;;;;;;7.76;100.00;99387.63;5135081;27;20047;-85
2023/04/23 04:34:54;;;;;;;22.13;7.57;;;;;;;7.77;100.00;99391.94;5136197;27;20073;-85
2023/04/23 04:37:20;;;;;;;19.38;6.90;;;;;;;7.63;100.00;99365.66;5131929;27;20054;-85
2023/04/23 04:39:47;;;;;;;15.10;6.72;;;;;;;7.48;100.00;99340.34;5128096;27;20054;-85
2023/04/23 04:42:14;;;;;;;26.23;6.78;;;;;;;7.68;100.00;99379.31;5136278;27;20051;-85
2023/04/23 04:44:42;;;;;;;25.38;7.50;;;;;;;7.70;100.00;99380.09;5135906;27;20050;-85
2023/04/23 04:47:09;;;;;;;20.98;7.55;;;;;;;7.63;100.00;99380.44;5135802;27;20467;-85
2023/04/23 04:49:37;;;;;;;26.10;9.05;;;;;;;7.41;100.00;99358.84;5131139;27;20044;-85
2023/04/23 04:52:04;;;;;;;18.35;7.00;;;;;;;7.63;100.00;99376.06;5124476;27;20115;-86
2023/04/23 04:54:30;;;;;;;22.05;7.57;;;;;;;7.76;100.00;99392.81;5135184;27;20464;-86
2023/04/23 04:56:57;;;;;;;20.83;8.10;;;;;;;7.60;100.00;99377.06;5135945;27;20055;-85
2023/04/23 04:59:24;;;;;;;21.02;8.07;;;;;;;7.79;100.00;99395.31;5132520;27;20057;-84
2023/04/23 05:01:50;;;;;;;18.75;7.95;;;;;;;7.88;100.00;99408.78;5135271;27;20047;-85
2023/04/23 05:04:17;;;;;;;22.60;6.85;;;;;;;7.75;100.00;99377.28;5131719;27;20051;-85
2023/04/23 05:06:44;;;;;;;19.67;8.23;;;;;;;7.86;100.00;99377.63;5136247;27;20047;-85
2023/04/23 05:09:11;;;;;;;19.75;7.65;;;;;;;7.99;100.00;99409.97;5137073;27;20050;-86
2023/04/23 05:11:39;;;;;;;21.13;7.70;;;;;;;7.88;100.00;99378.38;5134629;27;20047;-86
2023/04/23 05:14:05;;;;;;;15.95;7.50;;;;;;;8.23;100.00;99432.31;5137210;27;20047;-85
2023/04/23 05:16:33;;;;;;;22.70;8.38;;;;;;;8.07;100.00;99406.97;5136086;27;20047;-85
2023/04/23 05:19:00;;;;;;;25.92;7.63;;;;;;;7.77;100.00;99350.25;5128406;27;20052;-85
2023/04/23 05:21:27;;;;;;;23.10;6.65;;;;;;;8.03;100.00;99374.19;5130066;27;20058;-85
2023/04/23 05:23:54;;;;;;;26.88;7.50;;;;;;;8.32;100.00;99432.72;5135731;27;20051;-85
2023/04/23 05:26:21;;;;;;;21.15;6.72;;;;;;;8.26;100.00;99398.28;5122342;27;20240;-85
2023/04/23 05:28:47;;;;;;;19.52;6.72;;;;;;;8.08;100.00;99387.84;5135322;27;20044;-85
2023/04/23 05:31:14;;;;;;;28.60;9.35;;;;;;;8.22;100.00;99404.56;5136152;27;20047;-86
2023/04/23 05:33:43;;;;;;;19.52;7.45;;;;;;;7.76;100.00;99339.88;5133897;27;20039;-85
2023/04/23 05:36:16;;;;;;;24.73;7.38;;;;;;;8.29;100.00;99398.97;5134353;27;20122;-85
2023/04/23 05:38:42;;;;;;;19.13;7.53;;;;;;;7.98;100.00;99378.75;5134251;27;20047;-86
2023/04/23 05:41:10;;;;;;;19.33;6.75;;;;;;;8.46;100.00;99433.84;5127165;27;20043;-85
2023/04/23 05:43:36;;;;;;;20.00;7.28;;;;;;;7.91;100.00;99348.72;5133314;27;20055;-86
2023/04/23 05:46:06;;;;;;;19.02;7.13;;;;;;;8.45;100.00;99404.31;5125657;27;20452;-85
2023/04/23 05:48:33;;;;;;;20.85;6.25;;;;;;;8.33;100.00;99408.31;5129453;27;20039;-85
2023/04/23 05:51:00;;;;;;;25.77;7.07;;;;;;;8.49;100.00;99444.13;5119142;27;20370;-85
2023/04/23 05:53:27;;;;;;;24.05;6.38;;;;;;;8.17;100.00;99402.19;5132265;27;20129;-86
2023/04/23 05:55:54;;;;;;;21.30;6.35;;;;;;;8.42;100.00;99425.31;5131982;27;20082;-85
2023/04/23 05:58:20;;;;;;;14.63;5.00;;;;;;;8.14;100.00;99399.72;5132231;27;20047;-84
2023/04/23 06:00:48;;;;;;;15.40;5.43;;;;;;;8.29;100.00;99419.84;5125650;27;20134;-85
2023/04/23 06:03:15;;;;;;;16.13;5.13;;;;;;;8.24;100.00;99398.34;5124882;27;20484;-85
2023/04/23 06:05:42;;;;;;;16.83;5.35;;;;;;;8.30;100.00;99402.41;5131152;27;20759;-85
2023/04/23 06:08:09;;;;;;;16.80;5.13;;;;;;;8.32;100.00;99413.63;5134469;27;20051;-85
2023/04/23 06:10:36;;;;;;;15.50;4.72;;;;;;;8.40;100.00;99447.16;5134553;27;20126;-85
2023/04/23 06:13:03;;;;;;;20.17;4.93;;;;;;;8.08;100.00;99398.25;5126939;27;20400;-85
2023/04/23 06:15:29;;;;;;;15.00;4.63;;;;;;;8.13;100.00;99405.88;5131519;27;20039;-85
2023/04/23 06:17:56;;;;;;;18.20;5.13;;;;;;;7.89;100.00;99389.63;5134217;27;20057;-86
2023/04/23 06:20:24;;;;;;;17.88;4.40;;;;;;;8.12;100.00;99417.19;5135347;27;20047;-85
2023/04/23 06:22:51;;;;;;;18.88;4.70;;;;;;;7.90;100.00;99386.97;5131177;27;20056;-85
2023/04/23 06:25:17;;;;;;;13.27;4.75;;;;;;;8.45;100.00;99461.69;5130213;27;20043;-86
2023/04/23 06:27:45;;;;;;;12.60;4.40;;;;;;;8.21;100.00;99408.09;5134255;27;20594;-85
2023/04/23 06:30:12;;;;;;;17.50;4.60;;;;;;;8.25;100.00;99422.66;5134039;27;20047;-85
2023/04/23 06:32:38;;;;;;;19.30;4.82;;;;;;;8.40;100.00;99434.13;5131865;27;20047;-85
2023/04/23 06:35:06;;;;;;;17.67;4.82;;;;;;;8.23;100.00;99424.50;5129767;27;20449;-85
2023/04/23 06:37:34;;;;;;;17.85;5.03;;;;;;;8.48;100.00;99476.34;5124800;27;20047;-84
2023/04/23 06:40:00;;;;;;;15.52;4.25;;;;;;;8.44;100.00;99423.47;5124709;27;20054;-85
2023/04/23 06:42:27;;;;;;;14.73;4.47;;;;;;;8.18;100.00;99401.28;5130420;27;20053;-85
2023/04/23 06:44:54;;;;;;;15.82;4.90;;;;;;;8.45;100.00;99434.78;5134034;27;20039;-85
2023/04/23 06:47:21;;;;;;;18.80;5.25;;;;;;;8.48;100.00;99447.63;5119912;27;20044;-85
2023/04/23 06:49:48;;;;;;;17.48;5.22;;;;;;;8.78;100.00;99460.91;5122403;27;20112;-86
2023/04/23 06:52:14;;;;;;;25.17;6.82;;;;;;;8.81;100.00;99480.81;5132457;27;20043;-85
2023/04/23 06:54:41;;;;;;;23.92;6.97;;;;;;;8.58;100.00;99451.47;5132000;27;20050;-87
2023/04/23 06:57:08;;;;;;;23.70;6.75;;;;;;;8.43;100.00;99424.41;5127334;27;20047;-84
2023/04/23 06:59:35;;;;;;;20.85;5.57;;;;;;;8.42;100.00;99420.09;5129112;27;20055;-84
2023/04/23 07:02:02;;;;;;;23.67;6.93;;;;;;;8.57;100.00;99426.34;5121275;27;20047;-84
2023/04/23 07:04:29;;;;;;;23.10;6.80;;;;;;;8.45;100.00;99432.16;5132890;27;20404;-84
2023/04/23 07:06:57;;;;;;;22.08;5.80;;;;;;;8.88;100.00;99488.25;5125153;27;20457;-84
2023/04/23 07:09:24;;;;;;;23.75;7.20;;;;;;;8.48;100.00;99429.38;5120535;27;20095;-85
2023/04/23 07:11:51;;;;;;;30.60;7.13;;;;;;;8.27;100.00;99416.47;5132895;27;20039;-84
2023/04/23 07:14:18;;;;;;;23.05;7.05;;;;;;;8.79;100.00;99501.75;5131392;27;20047;-85
2023/04/23 07:16:45;;;;;;;29.95;7.53;;;;;;;8.72;100.00;99466.44;5130914;27;20487;-85
2023/04/23 07:19:12;;;;;;;28.52;6.75;;;;;;;8.62;100.00;99454.78;5115570;27;20082;-86
2023/04/23 07:21:39;;;;;;;39.50;9.48;;;;;;;8.51;100.00;99444.88;5130969;27;20046;-86
2023/04/23 07:24:06;;;;;;;28.77;9.65;;;;;;;8.61;100.00;99484.41;5124855;27;20098;-85
2023/04/23 07:26:34;;;;;;;33.88;9.23;;;;;;;8.87;100.00;99504.84;5131628;27;20504;-85
2023/04/23 07:29:02;;;;;;;38.50;11.00;;;;;;;8.81;100.00;99497.31;5125009;27;20044;-85
2023/04/23 07:31:29;;;;;;;36.38;9.57;;;;;;;8.46;100.00;99428.63;5133108;27;20043;-85
2023/04/23 07:33:56;;;;;;;39.47;10.90;;;;;;;8.68;100.00;99502.31;5124505;27;20055;-85
2023/04/23 07:36:23;;;;;;;38.20;10.63;;;;;;;8.35;100.00;99465.63;5118573;28;20043;-85
2023/04/23 07:38:50;;;;;;;36.70;10.95;;;;;;;8.35;100.00;99461.25;5129432;27;20112;-85
2023/04/23 07:41:17;;;;;;;31.05;9.57;;;;;;;8.48;100.00;99485.03;5132024;27;20054;-85
2023/04/23 07:43:44;;;;;;;33.72;10.68;;;;;;;8.79;100.00;99517.41;5126343;28;20171;-84
2023/04/23 07:46:10;;;;;;;36.95;10.43;;;;;;;8.50;100.00;99458.88;5133636;27;20096;-85
2023/04/23 07:48:37;;;;;;;30.60;9.20;;;;;;;8.57;100.00;99482.88;5127118;28;20047;-85
2023/04/23 07:51:05;;;;;;;35.08;10.52;;;;;;;8.55;100.00;99480.31;5132490;28;20051;-85
2023/04/23 07:53:32;;;;;;;39.53;11.40;;;;;;;8.29;100.00;99442.47;5132071;28;20047;-85
2023/04/23 07:55:59;;;;;;;43.83;11.20;;;;;;;8.74;100.00;99496.75;5123427;28;20081;-86
2023/04/23 07:58:26;;;;;;;28.58;9.90;;;;;;;8.86;100.00;99479.66;5112783;28;20104;-86
2023/04/23 08:00:53;;;;;;;40.88;10.10;;;;;;;8.94;100.00;99513.19;5129645;28;20035;-86
2023/04/23 08:03:20;;;;;;;50.63;12.52;;;;;;;8.90;100.00;99528.16;5132959;27;20051;-86
2023/04/23 08:05:47;;;;;;;51.75;12.32;;;;;;;8.80;100.00;99490.41;5132561;28;20043;-86
2023/04/23 08:08:14;;;;;;;37.92;11.52;;;;;;;8.72;100.00;99488.16;5131422;28;20047;-85
2023/04/23 08:10:41;;;;;;;51.38;11.02;;;;;;;8.86;100.00;99500.53;5123363;28;20039;-87
2023/04/23 08:13:08;;;;;;;45.50;12.18;;;;;;;8.90;100.00;99496.00;5127367;28;20047;-86
2023/04/23 08:15:35;;;;;;;54.80;13.10;;;;;;;9.04;100.00;99524.03;5129360;27;20115;-85
2023/04/23 08:18:03;;;;;;;58.42;14.38;;;;;;;8.78;100.00;99525.31;5133837;27;20047;-87
2023/04/23 08:20:31;;;;;;;54.50;15.18;;;;;;;8.41;100.00;99503.59;5131629;28;20039;-86
2023/04/23 08:22:58;;;;;;;49.72;12.45;;;;;;;8.58;100.00;99508.03;5131198;28;20092;-87
2023/04/23 08:25:25;;;;;;;46.17;11.27;;;;;;;8.59;100.00;99501.88;5125076;28;20401;-86
2023/04/23 08:27:51;;;;;;;48.17;11.90;;;;;;;8.81;100.00;99504.31;5131449;28;20051;-87
2023/04/23 08:30:18;;;;;;;48.70;13.13;;;;;;;8.85;100.00;99501.47;5133016;27;20430;-86
2023/04/23 08:32:48;;;;;;;40.17;11.15;;;;;;;9.26;100.00;99555.97;5132590;27;20027;-87
2023/04/23 08:35:15;;;;;;;41.83;12.13;;;;;;;8.96;100.00;99520.94;5129816;27;20075;-86
2023/04/23 08:37:42;;;;;;;42.13;11.23;;;;;;;8.89;100.00;99505.59;5134584;27;20450;-86
2023/04/23 08:40:10;;;;;;;57.97;12.02;;;;;;;8.92;100.00;99512.44;5133985;27;20047;-85
2023/04/23 08:42:37;;;;;;;41.47;11.50;;;;;;;9.19;100.00;99565.03;5125953;27;20483;-86
2023/04/23 08:45:04;;;;;;;39.53;11.00;;;;;;;9.29;100.00;99565.41;5124775;27;20465;-84
2023/04/23 08:47:32;;;;;;;41.70;11.25;;;;;;;8.96;100.00;99542.69;5127656;27;20074;-85
2023/04/23 08:50:00;;;;;;;48.92;12.52;;;;;;;8.75;100.00;99505.47;5132460;27;20081;-86
2023/04/23 08:52:33;;;;;;;47.85;11.63;;;;;;;9.16;100.00;99577.41;5132981;27;20055;-86
2023/04/23 08:55:03;;;;;;;42.35;11.15;;;;;;;9.08;100.00;99568.19;5125440;27;20699;-85
2023/04/23 08:57:30;;;;;;;52.85;11.52;;;;;;;8.58;100.00;99503.66;5129880;27;20567;-84
2023/04/23 09:00:04;;;;;;;47.08;11.35;;;;;;;8.85;100.00;99579.78;5130834;27;20171;-85
2023/04/23 09:02:32;;;;;;;46.22;10.77;;;;;;;8.70;100.00;99559.63;5130323;27;20046;-85
2023/04/23 09:05:07;;;;;;;45.70;10.77;;;;;;;8.81;100.00;99573.00;5135528;27;20055;-85
2023/04/23 09:07:36;;;;;;;40.28;9.73;;;;;;;8.94;100.00;99586.28;5128420;27;20126;-86
2023/04/23 09:10:06;;;;;;;37.42;9.20;;;;;;;8.91;100.00;99584.69;5133815;27;20051;-86
2023/04/23 09:12:37;;;;;;;44.25;9.95;;;;;;;8.67;100.00;99586.72;5133195;27;20112;-85
2023/04/23 09:15:09;;;;;;;36.50;8.93;;;;;;;8.75;100.00;99599.41;5131950;27;20047;-86
2023/04/23 09:17:51;;;;;;;30.10;6.70;;;;;;;8.79;100.00;99602.72;5131259;27;20050;-85
2023/04/23 09:20:18;;;;;;;29.75;7.63;;;;;;;8.55;100.00;99559.47;5130096;27;20077;-86
2023/04/23 09:22:51;;;;;;;22.67;6.03;;;;;;;8.66;100.00;99597.25;5126163;27;20135;-86
2023/04/23 09:25:22;;;;;;;19.77;6.53;;;;;;;8.33;100.00;99570.03;5130142;27;20070;-86
2023/04/23 09:27:50;;;;;;;19.85;4.50;;;;;;;8.57;100.00;99603.75;5126396;27;20054;-86
2023/04/23 09:30:22;;;;;;;23.45;5.85;;;;;;;8.36;100.00;99584.69;5136369;27;20121;-86
2023/04/23 09:32:51;;;;;;;25.63;6.13;;;;;;;8.39;100.00;99602.78;5133141;27;20043;-85
2023/04/23 09:35:21;;;;;;;20.77;6.68;;;;;;;8.34;100.00;99599.56;5129484;27;20063;-86
2023/04/23 09:37:52;;;;;;;21.42;6.13;;;;;;;8.32;100.00;99623.13;5135814;27;20129;-85
2023/04/23 09:40:22;;;;;;;24.40;5.28;;;;;;;8.39;100.00;99608.00;5130397;27;20610;-85
2023/04/23 09:42:53;;;;;;;16.02;4.47;;;;;;;8.43;100.00;99630.47;5129025;27;20062;-84
2023/04/23 09:45:21;;;;;;;15.07;4.00;;;;;;;7.98;100.00;99588.16;5129732;27;20118;-85
2023/04/23 09:48:06;;;;;;;18.75;4.15;;;;;;;7.88;100.00;99597.31;5126444;27;20108;-86
2023/04/23 09:50:39;;;;;;;16.88;5.28;;;;;;;7.98;100.00;99660.28;5131185;27;20688;-85
2023/04/23 09:53:07;;;;;;;18.83;6.10;;;;;;;7.93;100.00;99644.84;5134631;27;20104;-86
2023/04/23 09:55:37;;;;;;;16.65;5.10;;;;;;;7.78;100.00;99642.91;5130706;27;20763;-86
2023/04/23 09:58:06;;;;;;;14.70;5.18;;;;;;;7.95;100.00;99652.59;5125526;27;20073;-86
2023/04/23 10:00:37;;;;;;;19.02;5.68;;;;;;;7.87;100.00;99639.06;5122081;27;20080;-86
2023/04/23 10:03:06;;;;;;;18.67;6.53;;;;;;;7.74;100.00;99605.72;5133664;27;20050;-86
2023/04/23 10:05:41;;;;;;;17.05;5.00;;;;;;;8.12;100.00;99668.31;5129864;27;20533;-86
2023/04/23 10:08:30;;;;;;;22.25;6.28;;;;;;;7.92;100.00;99644.91;5135735;27;20051;-85
2023/04/23 10:10:56;;;;;;;18.20;6.20;;;;;;;7.91;100.00;99636.22;5115906;27;20051;-86
2023/04/23 10:13:43;;;;;;;17.88;6.30;;;;;;;8.23;100.00;99656.56;5126341;27;20126;-86
2023/04/23 10:16:10;;;;;;;18.38;6.32;;;;;;;7.93;100.00;99610.09;5135626;27;20039;-85
2023/04/23 10:18:51;;;;;;;17.63;6.18;;;;;;;8.15;100.00;99629.09;5133704;27;20050;-84
2023/04/23 10:21:19;;;;;;;17.42;5.65;;;;;;;7.96;100.00;99617.78;5125927;27;20035;-85
2023/04/23 10:23:49;;;;;;;13.65;5.65;;;;;;;8.11;100.00;99631.88;5134401;27;20050;-84
2023/04/23 10:26:18;;;;;;;15.85;4.65;;;;;;;8.33;100.00;99630.00;5129606;27;20047;-85
2023/04/23 10:28:47;;;;;;;21.02;5.90;;;;;;;8.44;100.00;99650.41;5127158;27;20135;-86
2023/04/23 10:31:15;;;;;;;19.10;5.57;;;;;;;8.20;100.00;99588.91;5124815;27;20455;-85
2023/04/23 10:33:42;;;;;;;19.52;6.18;;;;;;;8.34;100.00;99638.69;5119182;27;20071;-84
2023/04/23 10:36:24;;;;;;;16.48;5.03;;;;;;;8.20;100.00;99614.97;5113820;27;20047;-85
2023/04/23 10:38:55;;;;;;;15.88;5.40;;;;;;;8.33;100.00;99645.66;5122890;27;20571;-84
2023/04/23 10:41:34;;;;;;;15.00;4.03;;;;;;;8.25;100.00;99607.81;5126914;27;20035;-84
2023/04/23 10:44:03;;;;;;;16.13;4.32;;;;;;;8.28;100.00;99621.53;5123244;27;20082;-85
2023/04/23 10:46:33;;;;;;;11.75;4.40;;;;;;;7.88;100.00;99586.88;5123017;27;20047;-85
2023/04/23 10:49:13;;;;;;;13.82;4.22;;;;;;;8.09;100.00;99626.78;5132084;27;20096;-84
2023/04/23 10:51:45;;;;;;;13.43;4.10;;;;;;;8.44;100.00;99606.06;5153685;27;20460;-85
2023/04/23 10:54:35;;;;;;;14.00;4.32;;;;;;;8.22;100.00;99600.16;5135891;27;20173;-84
2023/04/23 10:57:05;;;;;;;12.45;3.85;;;;;;;8.59;100.00;99620.16;5124081;27;20134;-85
2023/04/23 10:59:36;;;;;;;13.07;3.65;;;;;;;9.16;100.00;99609.59;5130447;27;20084;-84
2023/04/23 11:02:09;;;;;;;12.57;4.03;;;;;;;9.43;100.00;99661.38;5134190;27;20039;-83
2023/04/23 11:04:55;;;;;;;14.02;4.13;;;;;;;9.74;100.00;99650.22;5129600;27;20055;-85
2023/04/23 11:07:32;;;;;;;9.57;3.65;;;;;;;9.82;100.00;99634.97;5113263;27;20062;-84
2023/04/23 11:10:11;;;;;;;11.95;3.50;;;;;;;9.55;100.00;99611.09;5111212;27;20047;-85
2023/04/23 11:12:39;;;;;;;12.02;3.67;;;;;;;9.58;100.00;99654.50;5124763;27;20055;-84
2023/04/23 11:15:24;;;;;;;13.93;4.43;;;;;;;9.59;100.00;99671.91;5135090;27;20652;-85
2023/04/23 11:17:51;;;;;;;12.77;3.17;;;;;;;9.49;100.00;99681.94;5127500;27;20047;-85
2023/04/23 11:20:19;;;;;;;11.90;4.20;;;;;;;9.38;100.00;99679.03;5121095;27;20071;-84
2023/04/23 11:22:49;;;;;;;13.15;3.90;;;;;;;9.23;100.00;99657.16;5123881;27;20043;-84
2023/04/23 11:25:25;;;;;;;14.98;4.72;;;;;;;9.11;100.00;99674.25;5120180;27;20408;-84
2023/04/23 11:27:54;;;;;;;15.57;4.13;;;;;;;8.43;100.00;99595.69;5128932;27;20054;-84
2023/04/23 11:30:27;;;;;;;17.25;4.90;;;;;;;9.08;100.00;99675.25;5131871;27;20404;-83